createdAt,value
2023-03-11T00:00:32.521Z,0.48
2023-03-11T00:01:32.496Z,0.47
2023-03-11T00:02:32.458Z,0.45
2023-03-11T00:03:32.472Z,0.45
2023-03-11T00:04:32.506Z,0.44
2023-03-11T00:05:32.487Z,0.45
2023-03-11T00:06:32.418Z,0.45
2023-03-11T00:07:32.417Z,0.47
2023-03-11T00:08:32.439Z,0.47
2023-03-11T00:09:32.404Z,0.47
2023-03-11T00:10:32.432Z,0.46
2023-03-11T00:11:32.362Z,0.45
2023-03-11T00:12:32.344Z,0.44
2023-03-11T00:13:32.346Z,0.43
2023-03-11T00:14:32.430Z,0.42
2023-03-11T00:15:32.340Z,0.40
2023-03-11T00:16:32.339Z,0.38
2023-03-11T00:17:32.344Z,0.37
2023-03-11T00:18:32.310Z,0.35
2023-03-11T00:19:32.335Z,0.32
2023-03-11T00:20:32.244Z,0.30
2023-03-11T00:21:32.223Z,0.28
2023-03-11T00:22:32.213Z,0.26
2023-03-11T00:23:32.239Z,0.24
2023-03-11T00:24:32.204Z,0.22
2023-03-11T00:25:32.213Z,0.20
2023-03-11T00:26:32.160Z,0.16
2023-03-11T00:27:32.178Z,0.13
2023-03-11T00:28:34.251Z,0.10
2023-03-11T00:29:32.142Z,0.07
2023-03-11T00:30:32.307Z,0.03
2023-03-11T00:31:32.123Z,-0.00
2023-03-11T00:32:32.154Z,-0.05
2023-03-11T00:33:32.106Z,-0.09
2023-03-11T00:34:32.073Z,-0.14
2023-03-11T00:35:32.149Z,-0.17
2023-03-11T00:36:32.045Z,-0.21
2023-03-11T00:37:32.097Z,-0.24
2023-03-11T00:38:32.038Z,-0.26
2023-03-11T00:39:32.029Z,-0.29
2023-03-11T00:40:32.013Z,-0.31
2023-03-11T00:41:32.000Z,-0.32
2023-03-11T00:42:31.982Z,-0.33
2023-03-11T00:43:31.972Z,-0.35
2023-03-11T00:44:31.952Z,-0.35
2023-03-11T00:45:32.637Z,-0.35
2023-03-11T00:46:31.987Z,-0.35
2023-03-11T00:47:31.886Z,-0.35
2023-03-11T00:48:31.913Z,-0.36
2023-03-11T00:49:31.929Z,-0.36
2023-03-11T00:50:31.873Z,-0.37
2023-03-11T00:51:34.141Z,-0.37
2023-03-11T00:52:31.824Z,-0.37
2023-03-11T00:53:31.822Z,-0.36
2023-03-11T00:54:31.822Z,-0.36
2023-03-11T00:55:31.825Z,-0.35
2023-03-11T00:56:31.826Z,-0.35
2023-03-11T00:57:31.774Z,-0.35
2023-03-11T00:58:31.770Z,-0.36
2023-03-11T00:59:31.784Z,-0.36
2023-03-11T01:00:31.715Z,-0.37
2023-03-11T01:01:31.750Z,-0.38
2023-03-11T01:02:31.728Z,-0.38
2023-03-11T01:03:31.734Z,-0.39
2023-03-11T01:04:31.693Z,-0.40
2023-03-11T01:05:31.657Z,-0.40
2023-03-11T01:06:43.168Z,-0.40
2023-03-11T01:07:31.650Z,-0.41
2023-03-11T01:08:31.635Z,-0.41
2023-03-11T01:09:31.598Z,-0.42
2023-03-11T01:10:31.569Z,-0.42
2023-03-11T01:11:31.578Z,-0.42
2023-03-11T01:12:31.576Z,-0.42
2023-03-11T01:13:31.549Z,-0.43
2023-03-11T01:14:31.549Z,-0.43
2023-03-11T01:15:31.581Z,-0.43
2023-03-11T01:16:31.528Z,-0.44
2023-03-11T01:17:31.493Z,-0.45
2023-03-11T01:18:31.500Z,-0.45
2023-03-11T01:19:31.484Z,-0.45
2023-03-11T01:20:31.477Z,-0.45
2023-03-11T01:21:31.451Z,-0.45
2023-03-11T01:22:31.425Z,-0.46
2023-03-11T01:23:31.434Z,-0.46
2023-03-11T01:24:31.453Z,-0.46
2023-03-11T01:25:31.422Z,-0.47
2023-03-11T01:26:31.395Z,-0.47
2023-03-11T01:27:31.377Z,-0.48
2023-03-11T01:28:31.377Z,-0.48
2023-03-11T01:29:31.402Z,-0.48
2023-03-11T01:30:31.333Z,-0.49
2023-03-11T01:31:31.421Z,-0.49
2023-03-11T01:32:31.380Z,-0.49
2023-03-11T01:33:31.310Z,-0.49
2023-03-11T01:34:31.283Z,-0.50
2023-03-11T01:35:31.311Z,-0.50
2023-03-11T01:36:31.259Z,-0.50
2023-03-11T01:37:31.271Z,-0.51
2023-03-11T01:38:31.264Z,-0.51
2023-03-11T01:39:31.262Z,-0.52
2023-03-11T01:40:31.210Z,-0.53
2023-03-11T01:41:31.202Z,-0.53
2023-03-11T01:42:31.161Z,-0.54
2023-03-11T01:43:31.160Z,-0.54
2023-03-11T01:44:31.160Z,-0.54
2023-03-11T01:45:31.138Z,-0.54
2023-03-11T01:46:31.179Z,-0.54
2023-03-11T01:47:31.153Z,-0.54
2023-03-11T01:48:31.125Z,-0.54
2023-03-11T01:49:31.067Z,-0.54
2023-03-11T01:50:31.074Z,-0.54
2023-03-11T01:51:31.085Z,-0.55
2023-03-11T01:52:31.032Z,-0.56
2023-03-11T01:53:31.054Z,-0.56
2023-03-11T01:54:30.997Z,-0.56
2023-03-11T01:55:31.001Z,-0.57
2023-03-11T01:56:30.964Z,-0.58
2023-03-11T01:57:30.981Z,-0.58
2023-03-11T01:58:30.945Z,-0.58
2023-03-11T01:59:30.969Z,-0.59
2023-03-11T02:00:30.941Z,-0.59
2023-03-11T02:01:30.940Z,-0.59
2023-03-11T02:02:30.925Z,-0.60
2023-03-11T02:03:30.908Z,-0.61
2023-03-11T02:04:30.905Z,-0.61
2023-03-11T02:05:30.886Z,-0.62
2023-03-11T02:06:30.837Z,-0.62
2023-03-11T02:07:30.843Z,-0.62
2023-03-11T02:08:30.824Z,-0.62
2023-03-11T02:09:30.799Z,-0.62
2023-03-11T02:10:30.809Z,-0.63
2023-03-11T02:11:30.836Z,-0.63
2023-03-11T02:12:30.775Z,-0.63
2023-03-11T02:13:30.779Z,-0.63
2023-03-11T02:14:30.768Z,-0.63
2023-03-11T02:15:30.747Z,-0.63
2023-03-11T02:16:30.835Z,-0.64
2023-03-11T02:17:30.738Z,-0.64
2023-03-11T02:18:30.691Z,-0.64
2023-03-11T02:19:30.691Z,-0.64
2023-03-11T02:20:30.721Z,-0.64
2023-03-11T02:21:30.662Z,-0.64
2023-03-11T02:22:30.652Z,-0.64
2023-03-11T02:23:30.644Z,-0.64
2023-03-11T02:24:30.637Z,-0.64
2023-03-11T02:25:30.628Z,-0.64
2023-03-11T02:26:30.587Z,-0.64
2023-03-11T02:27:30.576Z,-0.64
2023-03-11T02:28:30.594Z,-0.64
2023-03-11T02:29:30.551Z,-0.64
2023-03-11T02:30:30.581Z,-0.63
2023-03-11T02:31:30.611Z,-0.63
2023-03-11T02:32:30.579Z,-0.63
2023-03-11T02:33:30.539Z,-0.62
2023-03-11T02:34:30.517Z,-0.62
2023-03-11T02:35:30.583Z,-0.61
2023-03-11T02:36:30.496Z,-0.61
2023-03-11T02:37:30.481Z,-0.60
2023-03-11T02:38:30.468Z,-0.60
2023-03-11T02:39:30.437Z,-0.60
2023-03-11T02:40:30.438Z,-0.60
2023-03-11T02:41:30.404Z,-0.60
2023-03-11T02:42:30.398Z,-0.60
2023-03-11T02:43:30.371Z,-0.60
2023-03-11T02:44:30.365Z,-0.60
2023-03-11T02:45:30.379Z,-0.59
2023-03-11T02:46:30.371Z,-0.59
2023-03-11T02:47:30.342Z,-0.58
2023-03-11T02:48:30.299Z,-0.58
2023-03-11T02:49:30.336Z,-0.58
2023-03-11T02:50:30.278Z,-0.58
2023-03-11T02:51:30.280Z,-0.57
2023-03-11T02:52:30.288Z,-0.57
2023-03-11T02:53:30.241Z,-0.56
2023-03-11T02:54:30.228Z,-0.56
2023-03-11T02:55:30.209Z,-0.56
2023-03-11T02:56:30.220Z,-0.55
2023-03-11T02:57:30.200Z,-0.55
2023-03-11T02:58:30.192Z,-0.55
2023-03-11T02:59:30.191Z,-0.55
2023-03-11T03:00:30.159Z,-0.55
2023-03-11T03:01:30.138Z,-0.54
2023-03-11T03:02:30.129Z,-0.54
2023-03-11T03:03:30.107Z,-0.54
2023-03-11T03:04:30.197Z,-0.54
2023-03-11T03:05:30.211Z,-0.54
2023-03-11T03:06:30.097Z,-0.54
2023-03-11T03:07:30.069Z,-0.53
2023-03-11T03:08:30.058Z,-0.53
2023-03-11T03:09:30.091Z,-0.52
2023-03-11T03:10:30.037Z,-0.51
2023-03-11T03:11:30.025Z,-0.50
2023-03-11T03:12:30.020Z,-0.50
2023-03-11T03:13:29.971Z,-0.50
2023-03-11T03:14:29.964Z,-0.50
2023-03-11T03:15:29.956Z,-0.50
2023-03-11T03:16:30.018Z,-0.50
2023-03-11T03:17:30.006Z,-0.50
2023-03-11T03:18:29.930Z,-0.50
2023-03-11T03:19:29.901Z,-0.50
2023-03-11T03:20:29.914Z,-0.50
2023-03-11T03:21:29.887Z,-0.49
2023-03-11T03:22:29.848Z,-0.49
2023-03-11T03:23:29.869Z,-0.48
2023-03-11T03:24:29.821Z,-0.48
2023-03-11T03:25:29.853Z,-0.48
2023-03-11T03:26:29.804Z,-0.47
2023-03-11T03:27:29.793Z,-0.47
2023-03-11T03:28:29.786Z,-0.46
2023-03-11T03:29:29.817Z,-0.46
2023-03-11T03:30:29.772Z,-0.45
2023-03-11T03:31:29.784Z,-0.45
2023-03-11T03:32:29.774Z,-0.46
2023-03-11T03:33:29.740Z,-0.46
2023-03-11T03:34:29.699Z,-0.47
2023-03-11T03:35:29.722Z,-0.47
2023-03-11T03:36:29.689Z,-0.47
2023-03-11T03:37:29.669Z,-0.48
2023-03-11T03:38:29.657Z,-0.48
2023-03-11T03:39:30.758Z,-0.48
2023-03-11T03:40:29.619Z,-0.48
2023-03-11T03:41:29.645Z,-0.48
2023-03-11T03:42:29.607Z,-0.49
2023-03-11T03:43:29.624Z,-0.49
2023-03-11T03:44:29.588Z,-0.49
2023-03-11T03:45:29.589Z,-0.48
2023-03-11T03:46:29.562Z,-0.48
2023-03-11T03:47:29.556Z,-0.48
2023-03-11T03:48:29.508Z,-0.49
2023-03-11T03:49:29.529Z,-0.49
2023-03-11T03:50:29.486Z,-0.49
2023-03-11T03:51:29.509Z,-0.49
2023-03-11T03:52:29.492Z,-0.49
2023-03-11T03:53:29.533Z,-0.50
2023-03-11T03:54:29.496Z,-0.51
2023-03-11T03:55:29.505Z,-0.52
2023-03-11T03:56:29.417Z,-0.53
2023-03-11T03:57:29.435Z,-0.54
2023-03-11T03:58:29.460Z,-0.54
2023-03-11T03:59:29.436Z,-0.55
2023-03-11T04:00:29.412Z,-0.55
2023-03-11T04:01:29.377Z,-0.55
2023-03-11T04:02:29.366Z,-0.55
2023-03-11T04:03:29.381Z,-0.54
2023-03-11T04:04:29.346Z,-0.54
2023-03-11T04:05:29.317Z,-0.54
2023-03-11T04:06:29.342Z,-0.54
2023-03-11T04:07:29.280Z,-0.54
2023-03-11T04:08:29.277Z,-0.54
2023-03-11T04:09:29.253Z,-0.54
2023-03-11T04:10:29.247Z,-0.55
2023-03-11T04:11:29.238Z,-0.55
2023-03-11T04:12:29.246Z,-0.55
2023-03-11T04:13:29.216Z,-0.55
2023-03-11T04:14:29.184Z,-0.55
2023-03-11T04:15:29.179Z,-0.56
2023-03-11T04:16:29.227Z,-0.56
2023-03-11T04:17:29.180Z,-0.56
2023-03-11T04:18:29.141Z,-0.56
2023-03-11T04:19:29.134Z,-0.56
2023-03-11T04:20:29.108Z,-0.56
2023-03-11T04:21:29.095Z,-0.56
2023-03-11T04:22:29.075Z,-0.56
2023-03-11T04:23:29.087Z,-0.56
2023-03-11T04:24:29.072Z,-0.55
2023-03-11T04:25:29.082Z,-0.55
2023-03-11T04:26:29.026Z,-0.55
2023-03-11T04:27:29.018Z,-0.54
2023-03-11T04:28:29.033Z,-0.53
2023-03-11T04:29:29.030Z,-0.53
2023-03-11T04:30:29.034Z,-0.53
2023-03-11T04:31:28.973Z,-0.54
2023-03-11T04:32:28.994Z,-0.54
2023-03-11T04:33:28.946Z,-0.54
2023-03-11T04:34:28.939Z,-0.53
2023-03-11T04:35:28.941Z,-0.53
2023-03-11T04:36:28.928Z,-0.53
2023-03-11T04:37:28.900Z,-0.52
2023-03-11T04:38:28.881Z,-0.52
2023-03-11T04:39:28.851Z,-0.52
2023-03-11T04:40:28.869Z,-0.51
2023-03-11T04:41:28.844Z,-0.51
2023-03-11T04:42:28.828Z,-0.51
2023-03-11T04:43:28.794Z,-0.52
2023-03-11T04:44:28.786Z,-0.52
2023-03-11T04:45:28.771Z,-0.51
2023-03-11T04:46:28.921Z,-0.51
2023-03-11T04:47:28.757Z,-0.51
2023-03-11T04:48:28.793Z,-0.51
2023-03-11T04:49:28.718Z,-0.51
2023-03-11T04:50:28.737Z,-0.50
2023-03-11T04:51:28.723Z,-0.50
2023-03-11T04:52:28.691Z,-0.50
2023-03-11T04:53:28.692Z,-0.50
2023-03-11T04:54:28.679Z,-0.50
2023-03-11T04:55:28.669Z,-0.50
2023-03-11T04:56:28.680Z,-0.49
2023-03-11T04:57:28.616Z,-0.49
2023-03-11T04:58:28.630Z,-0.50
2023-03-11T04:59:28.656Z,-0.51
2023-03-11T05:00:28.576Z,-0.50
2023-03-11T05:01:28.630Z,-0.50
2023-03-11T05:02:28.556Z,-0.49
2023-03-11T05:03:28.605Z,-0.49
2023-03-11T05:04:28.628Z,-0.48
2023-03-11T05:05:28.507Z,-0.48
2023-03-11T05:06:28.502Z,-0.48
2023-03-11T05:07:28.497Z,-0.47
2023-03-11T05:08:28.490Z,-0.47
2023-03-11T05:09:28.463Z,-0.47
2023-03-11T05:10:30.758Z,-0.47
2023-03-11T05:11:28.436Z,-0.46
2023-03-11T05:12:28.488Z,-0.46
2023-03-11T05:13:28.425Z,-0.46
2023-03-11T05:14:28.415Z,-0.45
2023-03-11T05:15:28.384Z,-0.45
2023-03-11T05:16:28.410Z,-0.45
2023-03-11T05:17:28.356Z,-0.44
2023-03-11T05:18:28.377Z,-0.44
2023-03-11T05:19:28.370Z,-0.44
2023-03-11T05:20:28.314Z,-0.44
2023-03-11T05:21:28.332Z,-0.44
2023-03-11T05:22:28.289Z,-0.43
2023-03-11T05:23:28.288Z,-0.43
2023-03-11T05:24:28.312Z,-0.43
2023-03-11T05:25:28.300Z,-0.43
2023-03-11T05:26:28.273Z,-0.43
2023-03-11T05:27:28.248Z,-0.44
2023-03-11T05:28:28.318Z,-0.44
2023-03-11T05:29:28.278Z,-0.44
2023-03-11T05:30:29.297Z,-0.44
2023-03-11T05:31:28.399Z,-0.45
2023-03-11T05:32:28.252Z,-0.45
2023-03-11T05:33:28.186Z,-0.45
2023-03-11T05:34:28.237Z,-0.45
2023-03-11T05:35:28.240Z,-0.45
2023-03-11T05:36:28.161Z,-0.44
2023-03-11T05:37:28.107Z,-0.44
2023-03-11T05:38:28.284Z,-0.44
2023-03-11T05:39:28.098Z,-0.44
2023-03-11T05:40:28.057Z,-0.44
2023-03-11T05:41:28.075Z,-0.44
2023-03-11T05:42:28.052Z,-0.43
2023-03-11T05:43:28.160Z,-0.43
2023-03-11T05:44:28.244Z,-0.43
2023-03-11T05:45:28.011Z,-0.43
2023-03-11T05:46:28.032Z,-0.43
2023-03-11T05:47:27.971Z,-0.43
2023-03-11T05:48:28.599Z,-0.42
2023-03-11T05:49:28.760Z,-0.42
2023-03-11T05:50:27.937Z,-0.42
2023-03-11T05:51:27.990Z,-0.42
2023-03-11T05:52:27.929Z,-0.42
2023-03-11T05:53:27.905Z,-0.41
2023-03-11T05:54:27.916Z,-0.41
2023-03-11T05:55:27.890Z,-0.40
2023-03-11T05:56:27.874Z,-0.40
2023-03-11T05:57:27.995Z,-0.40
2023-03-11T05:58:27.905Z,-0.40
2023-03-11T05:59:27.972Z,-0.39
2023-03-11T06:00:28.048Z,-0.39
2023-03-11T06:01:27.804Z,-0.39
2023-03-11T06:02:27.802Z,-0.38
2023-03-11T06:03:27.783Z,-0.38
2023-03-11T06:04:27.881Z,-0.38
2023-03-11T06:05:27.866Z,-0.38
2023-03-11T06:06:27.738Z,-0.38
2023-03-11T06:07:27.723Z,-0.38
2023-03-11T06:08:27.740Z,-0.38
2023-03-11T06:09:27.734Z,-0.38
2023-03-11T06:10:27.683Z,-0.38
2023-03-11T06:11:27.684Z,-0.38
2023-03-11T06:12:27.686Z,-0.37
2023-03-11T06:13:27.627Z,-0.37
2023-03-11T06:14:28.182Z,-0.36
2023-03-11T06:15:27.791Z,-0.35
2023-03-11T06:16:27.678Z,-0.35
2023-03-11T06:17:29.974Z,-0.34
2023-03-11T06:18:27.630Z,-0.33
2023-03-11T06:19:27.555Z,-0.33
2023-03-11T06:20:27.748Z,-0.33
2023-03-11T06:21:28.236Z,-0.33
2023-03-11T06:22:28.179Z,-0.34
2023-03-11T06:23:27.630Z,-0.34
2023-03-11T06:24:27.573Z,-0.34
2023-03-11T06:25:27.475Z,-0.36
2023-03-11T06:26:27.519Z,-0.37
2023-03-11T06:27:27.480Z,-0.39
2023-03-11T06:28:27.496Z,-0.40
2023-03-11T06:29:27.437Z,-0.42
2023-03-11T06:30:27.469Z,-0.42
2023-03-11T06:31:27.464Z,-0.43
2023-03-11T06:32:27.435Z,-0.43
2023-03-11T06:33:27.491Z,-0.43
2023-03-11T06:34:27.385Z,-0.44
2023-03-11T06:35:27.388Z,-0.44
2023-03-11T06:36:27.673Z,-0.44
2023-03-11T06:37:27.343Z,-0.44
2023-03-11T06:38:27.440Z,-0.44
2023-03-11T06:39:27.561Z,-0.43
2023-03-11T06:40:27.291Z,-0.42
2023-03-11T06:41:27.259Z,-0.42
2023-03-11T06:42:27.329Z,-0.42
2023-03-11T06:43:27.275Z,-0.42
2023-03-11T06:44:27.243Z,-0.41
2023-03-11T06:45:27.209Z,-0.40
2023-03-11T06:46:27.220Z,-0.39
2023-03-11T06:47:27.199Z,-0.39
2023-03-11T06:48:27.213Z,-0.38
2023-03-11T06:49:27.174Z,-0.39
2023-03-11T06:50:28.095Z,-0.39
2023-03-11T06:51:27.189Z,-0.39
2023-03-11T06:52:27.137Z,-0.39
2023-03-11T06:53:27.124Z,-0.38
2023-03-11T06:54:27.170Z,-0.38
2023-03-11T06:55:27.098Z,-0.38
2023-03-11T06:56:27.106Z,-0.37
2023-03-11T06:57:27.061Z,-0.37
2023-03-11T06:58:28.100Z,-0.36
2023-03-11T06:59:27.034Z,-0.36
2023-03-11T07:00:27.052Z,-0.35
2023-03-11T07:01:27.038Z,-0.35
2023-03-11T07:02:27.016Z,-0.34
2023-03-11T07:03:27.305Z,-0.34
2023-03-11T07:04:27.071Z,-0.33
2023-03-11T07:05:26.971Z,-0.33
2023-03-11T07:06:26.958Z,-0.32
2023-03-11T07:07:26.931Z,-0.32
2023-03-11T07:08:27.050Z,-0.31
2023-03-11T07:09:26.932Z,-0.31
2023-03-11T07:10:26.923Z,-0.31
2023-03-11T07:11:26.884Z,-0.31
2023-03-11T07:12:27.614Z,-0.30
2023-03-11T07:13:27.406Z,-0.30
2023-03-11T07:14:26.922Z,-0.29
2023-03-11T07:15:26.834Z,-0.27
2023-03-11T07:16:26.851Z,-0.25
2023-03-11T07:17:26.858Z,-0.22
2023-03-11T07:18:26.810Z,-0.20
2023-03-11T07:19:26.832Z,-0.18
2023-03-11T07:20:26.801Z,-0.17
2023-03-11T07:21:26.801Z,-0.16
2023-03-11T07:22:26.787Z,-0.15
2023-03-11T07:23:26.765Z,-0.12
2023-03-11T07:24:26.757Z,-0.09
2023-03-11T07:25:26.721Z,-0.08
2023-03-11T07:26:26.693Z,-0.07
2023-03-11T07:27:27.038Z,-0.05
2023-03-11T07:28:26.791Z,-0.05
2023-03-11T07:29:26.759Z,-0.05
2023-03-11T07:30:26.625Z,-0.06
2023-03-11T07:31:26.613Z,-0.08
2023-03-11T07:32:26.859Z,-0.10
2023-03-11T07:33:27.105Z,-0.11
2023-03-11T07:34:26.618Z,-0.11
2023-03-11T07:35:26.674Z,-0.10
2023-03-11T07:36:26.573Z,-0.10
2023-03-11T07:37:26.753Z,-0.11
2023-03-11T07:38:26.592Z,-0.12
2023-03-11T07:39:26.499Z,-0.14
2023-03-11T07:40:26.847Z,-0.16
2023-03-11T07:41:26.593Z,-0.18
2023-03-11T07:42:26.472Z,-0.18
2023-03-11T07:43:26.565Z,-0.17
2023-03-11T07:44:26.454Z,-0.15
2023-03-11T07:45:26.453Z,-0.14
2023-03-11T07:46:26.464Z,-0.13
2023-03-11T07:47:26.428Z,-0.13
2023-03-11T07:48:26.465Z,-0.12
2023-03-11T07:49:26.401Z,-0.13
2023-03-11T07:50:26.370Z,-0.13
2023-03-11T07:51:26.380Z,-0.12
2023-03-11T07:52:26.526Z,-0.13
2023-03-11T07:53:26.327Z,-0.12
2023-03-11T07:54:26.368Z,-0.10
2023-03-11T07:55:26.313Z,-0.08
2023-03-11T07:56:26.311Z,-0.05
2023-03-11T07:57:26.315Z,-0.01
2023-03-11T07:58:26.275Z,0.02
2023-03-11T07:59:26.281Z,0.04
2023-03-11T08:00:26.294Z,0.09
2023-03-11T08:01:26.224Z,0.14
2023-03-11T08:02:26.272Z,0.18
2023-03-11T08:03:26.224Z,0.21
2023-03-11T08:04:26.216Z,0.26
2023-03-11T08:05:26.197Z,0.32
2023-03-11T08:06:26.253Z,0.36
2023-03-11T08:07:26.168Z,0.38
2023-03-11T08:08:26.190Z,0.38
2023-03-11T08:09:26.154Z,0.36
2023-03-11T08:10:26.146Z,0.34
2023-03-11T08:11:26.231Z,0.35
2023-03-11T08:12:26.101Z,0.37
2023-03-11T08:13:26.112Z,0.36
2023-03-11T08:14:26.144Z,0.35
2023-03-11T08:15:26.100Z,0.35
2023-03-11T08:16:26.038Z,0.37
2023-03-11T08:17:26.047Z,0.35
2023-03-11T08:18:26.005Z,0.31
2023-03-11T08:19:26.009Z,0.30
2023-03-11T08:20:26.012Z,0.33
2023-03-11T08:21:25.982Z,0.40
2023-03-11T08:22:25.973Z,0.46
2023-03-11T08:23:25.932Z,0.50
2023-03-11T08:24:26.006Z,0.51
2023-03-11T08:25:25.948Z,0.49
2023-03-11T08:26:25.936Z,0.47
2023-03-11T08:27:25.888Z,0.49
2023-03-11T08:28:25.987Z,0.57
2023-03-11T08:29:25.856Z,0.64
2023-03-11T08:30:25.891Z,0.70
2023-03-11T08:31:25.908Z,0.71
2023-03-11T08:32:26.019Z,0.69
2023-03-11T08:33:26.020Z,0.68
2023-03-11T08:34:25.845Z,0.69
2023-03-11T08:35:25.818Z,0.71
2023-03-11T08:36:25.786Z,0.71
2023-03-11T08:37:25.796Z,0.71
2023-03-11T08:38:25.746Z,0.72
2023-03-11T08:39:25.737Z,0.74
2023-03-11T08:40:25.724Z,0.74
2023-03-11T08:41:25.725Z,0.73
2023-03-11T08:42:25.690Z,0.73
2023-03-11T08:43:25.730Z,0.71
2023-03-11T08:44:25.660Z,0.72
2023-03-11T08:45:25.846Z,0.80
2023-03-11T08:46:25.784Z,0.87
2023-03-11T08:47:25.644Z,0.90
2023-03-11T08:48:25.617Z,0.96
2023-03-11T08:49:25.676Z,1.02
2023-03-11T08:50:25.590Z,1.04
2023-03-11T08:51:25.591Z,1.07
2023-03-11T08:52:25.546Z,1.11
2023-03-11T08:53:25.546Z,1.14
2023-03-11T08:54:25.570Z,1.12
2023-03-11T08:55:25.535Z,1.11
2023-03-11T08:56:25.535Z,1.11
2023-03-11T08:57:25.489Z,1.11
2023-03-11T08:58:25.488Z,1.09
2023-03-11T08:59:25.505Z,1.06
2023-03-11T09:00:25.544Z,1.15
2023-03-11T09:01:25.465Z,1.21
2023-03-11T09:02:25.499Z,1.36
2023-03-11T09:03:25.425Z,1.58
2023-03-11T09:04:25.386Z,1.84
2023-03-11T09:05:25.460Z,2.15
2023-03-11T09:06:25.387Z,2.41
2023-03-11T09:07:25.358Z,2.40
2023-03-11T09:08:25.336Z,2.13
2023-03-11T09:09:25.372Z,1.83
2023-03-11T09:10:25.337Z,1.69
2023-03-11T09:11:25.303Z,1.67
2023-03-11T09:12:25.307Z,1.63
2023-03-11T09:13:25.307Z,1.52
2023-03-11T09:14:25.276Z,1.38
2023-03-11T09:15:25.290Z,1.33
2023-03-11T09:16:25.302Z,1.39
2023-03-11T09:17:25.246Z,1.53
2023-03-11T09:18:25.235Z,1.59
2023-03-11T09:19:25.223Z,1.53
2023-03-11T09:20:25.196Z,1.46
2023-03-11T09:21:25.172Z,1.41
2023-03-11T09:22:25.158Z,1.31
2023-03-11T09:23:25.204Z,1.21
2023-03-11T09:24:25.127Z,1.13
2023-03-11T09:25:25.177Z,1.09
2023-03-11T09:26:25.106Z,1.08
2023-03-11T09:27:25.106Z,1.16
2023-03-11T09:28:25.109Z,1.31
2023-03-11T09:29:25.102Z,1.40
2023-03-11T09:30:25.214Z,1.41
2023-03-11T09:31:25.101Z,1.34
2023-03-11T09:32:25.240Z,1.22
2023-03-11T09:33:25.012Z,1.14
2023-03-11T09:34:25.141Z,1.09
2023-03-11T09:35:25.035Z,1.04
2023-03-11T09:36:25.008Z,1.06
2023-03-11T09:37:24.964Z,1.13
2023-03-11T09:38:25.002Z,1.30
2023-03-11T09:39:24.955Z,1.55
2023-03-11T09:40:25.191Z,1.69
2023-03-11T09:41:24.946Z,1.63
2023-03-11T09:42:24.984Z,1.47
2023-03-11T09:43:24.912Z,1.29
2023-03-11T09:44:24.895Z,1.15
2023-03-11T09:45:24.866Z,1.06
2023-03-11T09:46:25.742Z,1.03
2023-03-11T09:47:24.851Z,1.04
2023-03-11T09:48:24.876Z,1.09
2023-03-11T09:49:24.857Z,1.15
2023-03-11T09:50:24.923Z,1.17
2023-03-11T09:51:24.821Z,1.16
2023-03-11T09:52:24.757Z,1.12
2023-03-11T09:53:24.762Z,1.09
2023-03-11T09:54:24.779Z,1.06
2023-03-11T09:55:24.719Z,1.04
2023-03-11T09:56:24.725Z,1.01
2023-03-11T09:57:24.708Z,0.97
2023-03-11T09:58:24.695Z,0.94
2023-03-11T09:59:24.673Z,0.91
2023-03-11T10:00:24.754Z,0.87
2023-03-11T10:01:24.649Z,0.80
2023-03-11T10:02:24.740Z,0.74
2023-03-11T10:03:24.658Z,0.69
2023-03-11T10:04:24.625Z,0.63
2023-03-11T10:05:24.616Z,0.57
2023-03-11T10:06:24.577Z,0.51
2023-03-11T10:07:24.579Z,0.48
2023-03-11T10:08:24.540Z,0.46
2023-03-11T10:09:24.561Z,0.47
2023-03-11T10:10:24.525Z,0.48
2023-03-11T10:11:24.526Z,0.50
2023-03-11T10:12:24.496Z,0.51
2023-03-11T10:13:24.494Z,0.49
2023-03-11T10:14:24.486Z,0.46
2023-03-11T10:15:24.486Z,0.44
2023-03-11T10:16:24.471Z,0.44
2023-03-11T10:17:24.454Z,0.45
2023-03-11T10:18:24.441Z,0.44
2023-03-11T10:19:24.428Z,0.43
2023-03-11T10:20:24.433Z,0.45
2023-03-11T10:21:25.660Z,0.50
2023-03-11T10:22:24.364Z,0.55
2023-03-11T10:23:24.379Z,0.62
2023-03-11T10:24:24.350Z,0.69
2023-03-11T10:25:24.334Z,0.76
2023-03-11T10:26:24.325Z,0.81
2023-03-11T10:27:24.321Z,0.85
2023-03-11T10:28:24.283Z,0.89
2023-03-11T10:29:24.311Z,0.93
2023-03-11T10:30:24.277Z,0.95
2023-03-11T10:31:25.225Z,0.97
2023-03-11T10:32:24.260Z,1.03
2023-03-11T10:33:24.230Z,1.11
2023-03-11T10:34:24.226Z,1.14
2023-03-11T10:35:24.219Z,1.15
2023-03-11T10:36:24.230Z,1.17
2023-03-11T10:37:24.190Z,1.20
2023-03-11T10:38:24.176Z,1.26
2023-03-11T10:39:24.158Z,1.31
2023-03-11T10:40:24.386Z,1.34
2023-03-11T10:41:24.138Z,1.46
2023-03-11T10:42:24.096Z,1.81
2023-03-11T10:43:24.094Z,2.15
2023-03-11T10:44:24.114Z,2.31
2023-03-11T10:45:24.103Z,2.40
2023-03-11T10:46:24.102Z,2.39
2023-03-11T10:47:24.038Z,2.33
2023-03-11T10:48:24.043Z,2.23
2023-03-11T10:49:24.082Z,2.06
2023-03-11T10:50:24.007Z,1.98
2023-03-11T10:51:24.012Z,2.03
2023-03-11T10:52:23.969Z,2.08
2023-03-11T10:53:23.956Z,2.09
2023-03-11T10:54:23.957Z,2.02
2023-03-11T10:55:23.936Z,1.88
2023-03-11T10:56:23.941Z,1.75
2023-03-11T10:57:23.940Z,1.74
2023-03-11T10:58:23.906Z,1.82
2023-03-11T10:59:23.958Z,1.87
2023-03-11T11:00:23.860Z,1.91
2023-03-11T11:01:23.900Z,2.04
2023-03-11T11:02:23.878Z,2.20
2023-03-11T11:03:23.901Z,2.31
2023-03-11T11:04:23.918Z,2.31
2023-03-11T11:05:23.881Z,2.19
2023-03-11T11:06:23.814Z,1.98
2023-03-11T11:07:23.856Z,1.74
2023-03-11T11:08:23.781Z,1.54
2023-03-11T11:09:26.649Z,1.39
2023-03-11T11:10:23.756Z,1.27
2023-03-11T11:11:23.969Z,1.18
2023-03-11T11:12:23.738Z,1.10
2023-03-11T11:13:23.756Z,1.03
2023-03-11T11:14:23.749Z,0.99
2023-03-11T11:15:23.700Z,0.99
2023-03-11T11:16:23.764Z,1.02
2023-03-11T11:17:23.701Z,1.06
2023-03-11T11:18:23.619Z,1.10
2023-03-11T11:19:23.708Z,1.13
2023-03-11T11:20:23.762Z,1.15
2023-03-11T11:21:23.590Z,1.17
2023-03-11T11:22:23.594Z,1.22
2023-03-11T11:23:23.599Z,1.31
2023-03-11T11:24:23.570Z,1.45
2023-03-11T11:25:23.677Z,1.54
2023-03-11T11:26:23.608Z,1.56
2023-03-11T11:27:23.510Z,1.60
2023-03-11T11:28:23.509Z,1.64
2023-03-11T11:29:23.486Z,1.64
2023-03-11T11:30:23.472Z,1.63
2023-03-11T11:31:23.538Z,1.60
2023-03-11T11:32:23.490Z,1.62
2023-03-11T11:33:23.453Z,1.86
2023-03-11T11:34:23.413Z,2.13
2023-03-11T11:35:23.451Z,2.24
2023-03-11T11:36:23.415Z,2.17
2023-03-11T11:37:23.529Z,2.09
2023-03-11T11:38:23.373Z,1.98
2023-03-11T11:39:23.370Z,1.79
2023-03-11T11:40:23.382Z,1.63
2023-03-11T11:41:23.376Z,1.53
2023-03-11T11:42:23.335Z,1.49
2023-03-11T11:43:23.366Z,1.50
2023-03-11T11:44:23.312Z,1.55
2023-03-11T11:45:23.273Z,1.62
2023-03-11T11:46:23.312Z,1.68
2023-03-11T11:47:23.254Z,1.72
2023-03-11T11:48:23.279Z,1.74
2023-03-11T11:49:23.252Z,1.71
2023-03-11T11:50:23.257Z,1.64
2023-03-11T11:51:23.200Z,1.58
2023-03-11T11:52:23.199Z,1.54
2023-03-11T11:53:23.181Z,1.55
2023-03-11T11:54:23.227Z,1.56
2023-03-11T11:55:23.207Z,1.62
2023-03-11T11:56:23.141Z,1.72
2023-03-11T11:57:23.149Z,1.78
2023-03-11T11:58:23.091Z,1.81
2023-03-11T11:59:23.201Z,1.82
2023-03-11T12:00:23.119Z,1.99
2023-03-11T12:01:23.070Z,2.20
2023-03-11T12:02:23.112Z,2.33
2023-03-11T12:03:23.128Z,2.44
2023-03-11T12:04:23.079Z,2.77
2023-03-11T12:05:23.079Z,3.21
2023-03-11T12:06:23.033Z,3.61
2023-03-11T12:07:22.994Z,3.92
2023-03-11T12:08:22.988Z,4.25
2023-03-11T12:09:22.975Z,4.46
2023-03-11T12:10:24.135Z,4.33
2023-03-11T12:11:23.056Z,3.98
2023-03-11T12:12:23.031Z,3.62
2023-03-11T12:13:22.946Z,3.28
2023-03-11T12:14:22.954Z,3.16
2023-03-11T12:15:22.905Z,3.34
2023-03-11T12:16:22.854Z,3.59
2023-03-11T12:17:22.860Z,3.70
2023-03-11T12:18:22.824Z,3.60
2023-03-11T12:19:22.820Z,3.45
2023-03-11T12:20:22.806Z,3.35
2023-03-11T12:21:22.836Z,3.23
2023-03-11T12:22:22.786Z,3.09
2023-03-11T12:23:22.781Z,2.98
2023-03-11T12:24:22.763Z,2.95
2023-03-11T12:25:22.753Z,3.11
2023-03-11T12:26:22.809Z,3.24
2023-03-11T12:27:22.763Z,3.39
2023-03-11T12:28:22.704Z,3.57
2023-03-11T12:29:22.709Z,3.62
2023-03-11T12:30:22.773Z,3.58
2023-03-11T12:31:22.784Z,3.71
2023-03-11T12:32:22.730Z,3.89
2023-03-11T12:33:22.669Z,4.00
2023-03-11T12:34:22.683Z,4.03
2023-03-11T12:35:22.627Z,3.84
2023-03-11T12:36:22.598Z,3.54
2023-03-11T12:37:22.684Z,3.30
2023-03-11T12:38:22.578Z,3.06
2023-03-11T12:39:22.640Z,2.83
2023-03-11T12:40:22.625Z,2.67
2023-03-11T12:41:22.623Z,2.54
2023-03-11T12:42:22.536Z,2.45
2023-03-11T12:43:22.535Z,2.55
2023-03-11T12:44:22.567Z,2.78
2023-03-11T12:45:22.556Z,2.91
2023-03-11T12:46:22.510Z,2.88
2023-03-11T12:47:22.495Z,2.78
2023-03-11T12:48:22.556Z,2.65
2023-03-11T12:49:22.437Z,2.45
2023-03-11T12:50:22.462Z,2.24
2023-03-11T12:51:22.421Z,2.07
2023-03-11T12:52:22.417Z,1.94
2023-03-11T12:53:22.395Z,1.91
2023-03-11T12:54:22.426Z,1.87
2023-03-11T12:55:22.383Z,1.80
2023-03-11T12:56:22.416Z,1.73
2023-03-11T12:57:22.353Z,1.67
2023-03-11T12:58:23.873Z,1.61
2023-03-11T12:59:22.299Z,1.56
2023-03-11T13:00:22.372Z,1.54
2023-03-11T13:01:22.308Z,1.53
2023-03-11T13:02:22.268Z,1.51
2023-03-11T13:03:22.228Z,1.50